Weather at Kaldármelar Airport

Public forecast

Using degrees Celsius for public forecast. Weather courtesy of forecast.io.

Closest aviation weather report (METAR) to Kaldármelar Airport

Closest report is Reykjavik Airport, 39.8 nm (73.7 km) SSE. Retrieved 2021/06/21 10:00 UTC (23 minutes ago):

BIRK 211000Z 17015KT 9999 -RA SCT019 OVC046 08/04 Q1010

Closest aviation forecast (TAF) to Kaldármelar Airport

Closest forecast is Reykjavik Airport, 39.8 nm (73.7 km) SSE. Retrieved 2021/06/21 09:34 UTC (49 minutes ago):

TAF BIRK 210732Z 2109/2209 18012KT 9999 OVC020 TX09/2115Z TN07/2112Z TEMPO 2109/2119 5000 RADZ BKN008 OVC013 BECMG 2110/2112 16022KT -RADZ BKN013 OVC020 BECMG 2119/2121 24012KT SCT025 BKN040 TEMPO 2120/2202 1500 -DZ BR OVC005 BECMG 2202/2204 -SHRA BKN018